sensor_id;sensor_type;location;lat;lon;timestamp;P1;P2;P0
78678;PMS5003;67994;59.334;13.528;2023-05-16T00:00:00;16.7;14.7;
78678;PMS5003;67994;59.334;13.528;2023-05-16T00:01:00;16.7;14.7;
78678;PMS5003;67994;59.334;13.528;2023-05-16T00:02:00;16.7;14.7;
78678;PMS5003;67994;59.334;13.528;2023-05-16T00:03:00;21.6;19.3;
78678;PMS5003;67994;59.334;13.528;2023-05-16T00:04:00;21.6;19.3;
78678;PMS5003;67994;59.334;13.528;2023-05-16T00:05:00;21.6;19.3;
78678;PMS5003;67994;59.334;13.528;2023-05-16T00:06:00;21.6;19.3;
78678;PMS5003;67994;59.334;13.528;2023-05-16T00:07:00;21.6;19.3;
78678;PMS5003;67994;59.334;13.528;2023-05-16T00:08:00;17.3;17.1;
78678;PMS5003;67994;59.334;13.528;2023-05-16T00:09:00;17.3;17.1;
78678;PMS5003;67994;59.334;13.528;2023-05-16T00:10:00;17.3;17.1;
78678;PMS5003;67994;59.334;13.528;2023-05-16T00:11:00;17.3;17.1;
78678;PMS5003;67994;59.334;13.528;2023-05-16T00:12:00;17.3;17.1;
78678;PMS5003;67994;59.334;13.528;2023-05-16T00:13:00;12.3;12.3;
78678;PMS5003;67994;59.334;13.528;2023-05-16T00:14:00;12.3;12.3;
78678;PMS5003;67994;59.334;13.528;2023-05-16T00:15:00;12.3;12.3;
78678;PMS5003;67994;59.334;13.528;2023-05-16T00:16:00;12.3;12.3;
78678;PMS5003;67994;59.334;13.528;2023-05-16T00:17:00;12.3;12.3;
78678;PMS5003;67994;59.334;13.528;2023-05-16T00:18:00;17.5;15.8;
78678;PMS5003;67994;59.334;13.528;2023-05-16T00:19:00;17.5;15.8;
78678;PMS5003;67994;59.334;13.528;2023-05-16T00:20:00;17.5;15.8;
78678;PMS5003;67994;59.334;13.528;2023-05-16T00:21:00;17.5;15.8;
78678;PMS5003;67994;59.334;13.528;2023-05-16T00:22:00;17.5;15.8;
78678;PMS5003;67994;59.334;13.528;2023-05-16T00:23:00;17.9;17.7;
78678;PMS5003;67994;59.334;13.528;2023-05-16T00:24:00;17.9;17.7;
78678;PMS5003;67994;59.334;13.528;2023-05-16T00:25:00;17.9;17.7;
78678;PMS5003;67994;59.334;13.528;2023-05-16T00:26:00;17.9;17.7;
78678;PMS5003;67994;59.334;13.528;2023-05-16T00:27:00;17.9;17.7;
78678;PMS5003;67994;59.334;13.528;2023-05-16T00:28:00;23.7;22.5;
78678;PMS5003;67994;59.334;13.528;2023-05-16T00:29:00;23.7;22.5;
78678;PMS5003;67994;59.334;13.528;2023-05-16T00:30:00;23.7;22.5;
78678;PMS5003;67994;59.334;13.528;2023-05-16T00:31:00;23.7;22.5;
78678;PMS5003;67994;59.334;13.528;2023-05-16T00:32:00;23.7;22.5;
78678;PMS5003;67994;59.334;13.528;2023-05-16T00:33:00;17.7;17.7;
78678;PMS5003;67994;59.334;13.528;2023-05-16T00:34:00;17.7;17.7;
78678;PMS5003;67994;59.334;13.528;2023-05-16T00:35:00;17.7;17.7;
78678;PMS5003;67994;59.334;13.528;2023-05-16T00:36:00;17.7;17.7;
78678;PMS5003;67994;59.334;13.528;2023-05-16T00:37:00;17.7;17.7;
78678;PMS5003;67994;59.334;13.528;2023-05-16T00:38:00;19.7;18.6;
78678;PMS5003;67994;59.334;13.528;2023-05-16T00:39:00;19.7;18.6;
78678;PMS5003;67994;59.334;13.528;2023-05-16T00:40:00;19.7;18.6;
78678;PMS5003;67994;59.334;13.528;2023-05-16T00:41:00;19.7;18.6;
78678;PMS5003;67994;59.334;13.528;2023-05-16T00:42:00;19.7;18.6;
78678;PMS5003;67994;59.334;13.528;2023-05-16T00:43:00;15.9;15.2;
78678;PMS5003;67994;59.334;13.528;2023-05-16T00:44:00;15.9;15.2;
78678;PMS5003;67994;59.334;13.528;2023-05-16T00:45:00;15.9;15.2;
78678;PMS5003;67994;59.334;13.528;2023-05-16T00:46:00;15.9;15.2;
78678;PMS5003;67994;59.334;13.528;2023-05-16T00:47:00;15.9;15.2;
78678;PMS5003;67994;59.334;13.528;2023-05-16T00:48:00;20.3;16.4;
78678;PMS5003;67994;59.334;13.528;2023-05-16T00:49:01;20.3;16.4;
78678;PMS5003;67994;59.334;13.528;2023-05-16T00:50:00;20.3;16.4;
78678;PMS5003;67994;59.334;13.528;2023-05-16T00:51:00;20.3;16.4;
78678;PMS5003;67994;59.334;13.528;2023-05-16T00:52:00;20.3;16.4;
78678;PMS5003;67994;59.334;13.528;2023-05-16T00:53:00;22.8;22.0;
78678;PMS5003;67994;59.334;13.528;2023-05-16T00:54:00;22.8;22.0;
78678;PMS5003;67994;59.334;13.528;2023-05-16T00:55:00;22.8;22.0;
78678;PMS5003;67994;59.334;13.528;2023-05-16T00:56:00;22.8;22.0;
78678;PMS5003;67994;59.334;13.528;2023-05-16T00:57:00;22.8;22.0;
78678;PMS5003;67994;59.334;13.528;2023-05-16T00:58:00;18.3;18.2;
78678;PMS5003;67994;59.334;13.528;2023-05-16T00:59:00;18.3;18.2;
78678;PMS5003;67994;59.334;13.528;2023-05-16T01:00:00;18.3;18.2;
78678;PMS5003;67994;59.334;13.528;2023-05-16T01:01:00;18.3;18.2;
78678;PMS5003;67994;59.334;13.528;2023-05-16T01:02:00;18.3;18.2;
78678;PMS5003;67994;59.334;13.528;2023-05-16T01:03:00;14.8;14.8;
78678;PMS5003;67994;59.334;13.528;2023-05-16T01:04:00;14.8;14.8;
78678;PMS5003;67994;59.334;13.528;2023-05-16T01:05:00;14.8;14.8;
78678;PMS5003;67994;59.334;13.528;2023-05-16T01:06:00;14.8;14.8;
78678;PMS5003;67994;59.334;13.528;2023-05-16T01:07:00;14.8;14.8;
78678;PMS5003;67994;59.334;13.528;2023-05-16T01:08:00;19.2;18.4;
78678;PMS5003;67994;59.334;13.528;2023-05-16T01:09:00;19.2;18.4;
78678;PMS5003;67994;59.334;13.528;2023-05-16T01:10:00;19.2;18.4;
78678;PMS5003;67994;59.334;13.528;2023-05-16T01:11:01;19.2;18.4;
78678;PMS5003;67994;59.334;13.528;2023-05-16T01:12:01;19.2;18.4;
78678;PMS5003;67994;59.334;13.528;2023-05-16T01:13:03;19.4;18.7;
78678;PMS5003;67994;59.334;13.528;2023-05-16T01:14:04;19.4;18.7;
78678;PMS5003;67994;59.334;13.528;2023-05-16T01:15:02;19.4;18.7;
78678;PMS5003;67994;59.334;13.528;2023-05-16T01:16:02;19.4;18.7;
78678;PMS5003;67994;59.334;13.528;2023-05-16T01:17:03;19.4;18.7;
78678;PMS5003;67994;59.334;13.528;2023-05-16T01:18:02;21.1;18.6;
78678;PMS5003;67994;59.334;13.528;2023-05-16T01:19:02;21.1;18.6;
78678;PMS5003;67994;59.334;13.528;2023-05-16T01:20:02;21.1;18.6;
78678;PMS5003;67994;59.334;13.528;2023-05-16T01:21:01;21.1;18.6;
78678;PMS5003;67994;59.334;13.528;2023-05-16T01:22:01;21.1;18.6;
78678;PMS5003;67994;59.334;13.528;2023-05-16T01:23:04;21.2;20.0;
78678;PMS5003;67994;59.334;13.528;2023-05-16T01:24:02;21.2;20.0;
78678;PMS5003;67994;59.334;13.528;2023-05-16T01:25:03;21.2;20.0;
78678;PMS5003;67994;59.334;13.528;2023-05-16T01:27:00;21.2;20.0;
78678;PMS5003;67994;59.334;13.528;2023-05-16T01:28:00;20.9;19.1;
78678;PMS5003;67994;59.334;13.528;2023-05-16T01:29:00;20.9;19.1;
78678;PMS5003;67994;59.334;13.528;2023-05-16T01:30:00;20.9;19.1;
78678;PMS5003;67994;59.334;13.528;2023-05-16T01:31:00;20.9;19.1;
78678;PMS5003;67994;59.334;13.528;2023-05-16T01:32:00;20.9;19.1;
78678;PMS5003;67994;59.334;13.528;2023-05-16T01:33:00;19.4;18.7;
78678;PMS5003;67994;59.334;13.528;2023-05-16T01:34:00;19.4;18.7;
78678;PMS5003;67994;59.334;13.528;2023-05-16T01:35:00;19.4;18.7;
78678;PMS5003;67994;59.334;13.528;2023-05-16T01:36:02;19.4;18.7;
78678;PMS5003;67994;59.334;13.528;2023-05-16T01:37:02;19.4;18.7;
78678;PMS5003;67994;59.334;13.528;2023-05-16T01:38:09;18.5;16.3;
78678;PMS5003;67994;59.334;13.528;2023-05-16T01:39:01;18.5;16.3;
78678;PMS5003;67994;59.334;13.528;2023-05-16T01:40:02;18.5;16.3;
78678;PMS5003;67994;59.334;13.528;2023-05-16T01:41:01;18.5;16.3;
78678;PMS5003;67994;59.334;13.528;2023-05-16T01:42:02;18.5;16.3;
78678;PMS5003;67994;59.334;13.528;2023-05-16T01:43:00;22.6;20.0;
78678;PMS5003;67994;59.334;13.528;2023-05-16T01:44:01;22.6;20.0;
78678;PMS5003;67994;59.334;13.528;2023-05-16T01:45:02;22.6;20.0;
78678;PMS5003;67994;59.334;13.528;2023-05-16T01:46:02;22.6;20.0;
78678;PMS5003;67994;59.334;13.528;2023-05-16T01:47:01;22.6;20.0;
78678;PMS5003;67994;59.334;13.528;2023-05-16T01:48:03;24.6;20.5;
78678;PMS5003;67994;59.334;13.528;2023-05-16T01:49:02;24.6;20.5;
78678;PMS5003;67994;59.334;13.528;2023-05-16T01:50:01;24.6;20.5;
78678;PMS5003;67994;59.334;13.528;2023-05-16T01:51:00;24.6;20.5;
78678;PMS5003;67994;59.334;13.528;2023-05-16T01:52:03;24.6;20.5;
78678;PMS5003;67994;59.334;13.528;2023-05-16T01:53:02;21.1;18.3;
78678;PMS5003;67994;59.334;13.528;2023-05-16T01:54:02;21.1;18.3;
78678;PMS5003;67994;59.334;13.528;2023-05-16T01:55:00;21.1;18.3;
78678;PMS5003;67994;59.334;13.528;2023-05-16T01:56:00;21.1;18.3;
78678;PMS5003;67994;59.334;13.528;2023-05-16T01:57:00;21.1;18.3;
78678;PMS5003;67994;59.334;13.528;2023-05-16T01:58:00;21.8;21.8;
78678;PMS5003;67994;59.334;13.528;2023-05-16T01:59:00;21.8;21.8;
78678;PMS5003;67994;59.334;13.528;2023-05-16T02:00:00;21.8;21.8;
78678;PMS5003;67994;59.334;13.528;2023-05-16T02:01:00;21.8;21.8;
78678;PMS5003;67994;59.334;13.528;2023-05-16T02:02:01;21.8;21.8;
78678;PMS5003;67994;59.334;13.528;2023-05-16T02:03:00;23.8;22.0;
78678;PMS5003;67994;59.334;13.528;2023-05-16T02:04:00;23.8;22.0;
78678;PMS5003;67994;59.334;13.528;2023-05-16T02:05:00;23.8;22.0;
78678;PMS5003;67994;59.334;13.528;2023-05-16T02:06:00;23.8;22.0;
78678;PMS5003;67994;59.334;13.528;2023-05-16T02:07:00;23.8;22.0;
78678;PMS5003;67994;59.334;13.528;2023-05-16T02:08:00;18.6;18.6;
78678;PMS5003;67994;59.334;13.528;2023-05-16T02:09:00;18.6;18.6;
78678;PMS5003;67994;59.334;13.528;2023-05-16T02:10:00;18.6;18.6;
78678;PMS5003;67994;59.334;13.528;2023-05-16T02:11:00;18.6;18.6;
78678;PMS5003;67994;59.334;13.528;2023-05-16T02:12:00;18.6;18.6;
78678;PMS5003;67994;59.334;13.528;2023-05-16T02:13:00;22.9;19.1;
78678;PMS5003;67994;59.334;13.528;2023-05-16T02:14:00;22.9;19.1;
78678;PMS5003;67994;59.334;13.528;2023-05-16T02:15:00;22.9;19.1;
78678;PMS5003;67994;59.334;13.528;2023-05-16T02:16:00;22.9;19.1;
78678;PMS5003;67994;59.334;13.528;2023-05-16T02:17:00;22.9;19.1;
78678;PMS5003;67994;59.334;13.528;2023-05-16T02:18:00;30.5;25.3;
78678;PMS5003;67994;59.334;13.528;2023-05-16T02:19:00;30.5;25.3;
78678;PMS5003;67994;59.334;13.528;2023-05-16T02:20:00;30.5;25.3;
78678;PMS5003;67994;59.334;13.528;2023-05-16T02:21:00;30.5;25.3;
78678;PMS5003;67994;59.334;13.528;2023-05-16T02:22:00;30.5;25.3;
78678;PMS5003;67994;59.334;13.528;2023-05-16T02:23:00;25.5;23.0;
78678;PMS5003;67994;59.334;13.528;2023-05-16T02:24:00;25.5;23.0;
78678;PMS5003;67994;59.334;13.528;2023-05-16T02:25:00;25.5;23.0;
78678;PMS5003;67994;59.334;13.528;2023-05-16T02:26:00;25.5;23.0;
78678;PMS5003;67994;59.334;13.528;2023-05-16T02:27:00;25.5;23.0;
78678;PMS5003;67994;59.334;13.528;2023-05-16T02:28:00;28.3;24.7;
78678;PMS5003;67994;59.334;13.528;2023-05-16T02:29:01;28.3;24.7;
78678;PMS5003;67994;59.334;13.528;2023-05-16T02:30:00;28.3;24.7;
78678;PMS5003;67994;59.334;13.528;2023-05-16T02:31:00;28.3;24.7;
78678;PMS5003;67994;59.334;13.528;2023-05-16T02:32:00;28.3;24.7;
78678;PMS5003;67994;59.334;13.528;2023-05-16T02:33:00;26.0;21.3;
78678;PMS5003;67994;59.334;13.528;2023-05-16T02:34:00;26.0;21.3;
78678;PMS5003;67994;59.334;13.528;2023-05-16T02:35:00;26.0;21.3;
78678;PMS5003;67994;59.334;13.528;2023-05-16T02:36:00;26.0;21.3;
78678;PMS5003;67994;59.334;13.528;2023-05-16T02:37:00;26.0;21.3;
78678;PMS5003;67994;59.334;13.528;2023-05-16T02:38:00;21.1;20.4;
78678;PMS5003;67994;59.334;13.528;2023-05-16T02:39:00;21.1;20.4;
78678;PMS5003;67994;59.334;13.528;2023-05-16T02:40:00;21.1;20.4;
78678;PMS5003;67994;59.334;13.528;2023-05-16T02:41:00;21.1;20.4;
78678;PMS5003;67994;59.334;13.528;2023-05-16T02:42:00;21.1;20.4;
78678;PMS5003;67994;59.334;13.528;2023-05-16T02:43:00;25.3;23.6;
78678;PMS5003;67994;59.334;13.528;2023-05-16T02:44:00;25.3;23.6;
78678;PMS5003;67994;59.334;13.528;2023-05-16T02:45:00;25.3;23.6;
78678;PMS5003;67994;59.334;13.528;2023-05-16T02:46:00;25.3;23.6;
78678;PMS5003;67994;59.334;13.528;2023-05-16T02:47:00;25.3;23.6;
78678;PMS5003;67994;59.334;13.528;2023-05-16T02:48:00;28.8;26.1;
78678;PMS5003;67994;59.334;13.528;2023-05-16T02:49:00;28.8;26.1;
78678;PMS5003;67994;59.334;13.528;2023-05-16T02:50:00;28.8;26.1;
78678;PMS5003;67994;59.334;13.528;2023-05-16T02:51:00;28.8;26.1;
78678;PMS5003;67994;59.334;13.528;2023-05-16T02:52:00;28.8;26.1;
78678;PMS5003;67994;59.334;13.528;2023-05-16T02:53:00;27.0;26.1;
78678;PMS5003;67994;59.334;13.528;2023-05-16T02:54:00;27.0;26.1;
78678;PMS5003;67994;59.334;13.528;2023-05-16T02:55:00;27.0;26.1;
78678;PMS5003;67994;59.334;13.528;2023-05-16T02:56:00;27.0;26.1;
78678;PMS5003;67994;59.334;13.528;2023-05-16T02:57:00;27.0;26.1;
78678;PMS5003;67994;59.334;13.528;2023-05-16T02:58:00;27.4;25.7;
78678;PMS5003;67994;59.334;13.528;2023-05-16T02:59:00;27.4;25.7;
78678;PMS5003;67994;59.334;13.528;2023-05-16T03:00:00;27.4;25.7;
78678;PMS5003;67994;59.334;13.528;2023-05-16T03:01:00;27.4;25.7;
78678;PMS5003;67994;59.334;13.528;2023-05-16T03:02:00;27.4;25.7;
78678;PMS5003;67994;59.334;13.528;2023-05-16T03:03:00;26.3;23.1;
78678;PMS5003;67994;59.334;13.528;2023-05-16T03:04:00;26.3;23.1;
78678;PMS5003;67994;59.334;13.528;2023-05-16T03:05:00;26.3;23.1;
78678;PMS5003;67994;59.334;13.528;2023-05-16T03:06:00;26.3;23.1;
78678;PMS5003;67994;59.334;13.528;2023-05-16T03:07:00;26.3;23.1;
78678;PMS5003;67994;59.334;13.528;2023-05-16T03:08:00;27.1;26.3;
78678;PMS5003;67994;59.334;13.528;2023-05-16T03:09:00;27.1;26.3;
78678;PMS5003;67994;59.334;13.528;2023-05-16T03:10:00;27.1;26.3;
78678;PMS5003;67994;59.334;13.528;2023-05-16T03:11:00;27.1;26.3;
78678;PMS5003;67994;59.334;13.528;2023-05-16T03:12:00;27.1;26.3;
78678;PMS5003;67994;59.334;13.528;2023-05-16T03:13:00;18.4;18.4;
78678;PMS5003;67994;59.334;13.528;2023-05-16T03:14:00;18.4;18.4;
78678;PMS5003;67994;59.334;13.528;2023-05-16T03:15:00;18.4;18.4;
78678;PMS5003;67994;59.334;13.528;2023-05-16T03:16:00;18.4;18.4;
78678;PMS5003;67994;59.334;13.528;2023-05-16T03:17:00;18.4;18.4;
78678;PMS5003;67994;59.334;13.528;2023-05-16T03:18:00;25.5;23.7;
78678;PMS5003;67994;59.334;13.528;2023-05-16T03:19:00;25.5;23.7;
78678;PMS5003;67994;59.334;13.528;2023-05-16T03:20:00;25.5;23.7;
78678;PMS5003;67994;59.334;13.528;2023-05-16T03:21:00;25.5;23.7;
78678;PMS5003;67994;59.334;13.528;2023-05-16T03:22:00;25.5;23.7;
78678;PMS5003;67994;59.334;13.528;2023-05-16T03:23:00;26.2;22.1;
78678;PMS5003;67994;59.334;13.528;2023-05-16T03:24:01;26.2;22.1;
78678;PMS5003;67994;59.334;13.528;2023-05-16T03:25:00;26.2;22.1;
78678;PMS5003;67994;59.334;13.528;2023-05-16T03:26:00;26.2;22.1;
78678;PMS5003;67994;59.334;13.528;2023-05-16T03:27:00;26.2;22.1;
78678;PMS5003;67994;59.334;13.528;2023-05-16T03:28:00;32.0;28.2;
78678;PMS5003;67994;59.334;13.528;2023-05-16T03:29:00;32.0;28.2;
78678;PMS5003;67994;59.334;13.528;2023-05-16T03:30:00;32.0;28.2;
78678;PMS5003;67994;59.334;13.528;2023-05-16T03:31:00;32.0;28.2;
78678;PMS5003;67994;59.334;13.528;2023-05-16T03:32:00;32.0;28.2;
78678;PMS5003;67994;59.334;13.528;2023-05-16T03:33:00;23.9;22.1;
78678;PMS5003;67994;59.334;13.528;2023-05-16T03:34:00;23.9;22.1;
78678;PMS5003;67994;59.334;13.528;2023-05-16T03:35:00;23.9;22.1;
78678;PMS5003;67994;59.334;13.528;2023-05-16T03:36:00;23.9;22.1;
78678;PMS5003;67994;59.334;13.528;2023-05-16T03:37:00;23.9;22.1;
78678;PMS5003;67994;59.334;13.528;2023-05-16T03:38:00;25.6;24.0;
78678;PMS5003;67994;59.334;13.528;2023-05-16T03:39:00;25.6;24.0;
78678;PMS5003;67994;59.334;13.528;2023-05-16T03:40:00;25.6;24.0;
78678;PMS5003;67994;59.334;13.528;2023-05-16T03:41:00;25.6;24.0;
78678;PMS5003;67994;59.334;13.528;2023-05-16T03:42:00;25.6;24.0;
78678;PMS5003;67994;59.334;13.528;2023-05-16T03:43:00;27.2;25.4;
78678;PMS5003;67994;59.334;13.528;2023-05-16T03:44:00;27.2;25.4;
78678;PMS5003;67994;59.334;13.528;2023-05-16T03:45:00;27.2;25.4;
78678;PMS5003;67994;59.334;13.528;2023-05-16T03:46:00;27.2;25.4;
78678;PMS5003;67994;59.334;13.528;2023-05-16T03:47:00;27.2;25.4;
78678;PMS5003;67994;59.334;13.528;2023-05-16T03:48:00;24.5;20.5;
78678;PMS5003;67994;59.334;13.528;2023-05-16T03:49:00;24.5;20.5;
78678;PMS5003;67994;59.334;13.528;2023-05-16T03:50:00;24.5;20.5;
78678;PMS5003;67994;59.334;13.528;2023-05-16T03:51:00;24.5;20.5;
78678;PMS5003;67994;59.334;13.528;2023-05-16T03:52:00;24.5;20.5;
78678;PMS5003;67994;59.334;13.528;2023-05-16T03:53:00;23.5;22.6;
78678;PMS5003;67994;59.334;13.528;2023-05-16T03:54:00;23.5;22.6;
78678;PMS5003;67994;59.334;13.528;2023-05-16T03:55:00;23.5;22.6;
78678;PMS5003;67994;59.334;13.528;2023-05-16T03:56:00;23.5;22.6;
78678;PMS5003;67994;59.334;13.528;2023-05-16T03:57:00;23.5;22.6;
78678;PMS5003;67994;59.334;13.528;2023-05-16T03:58:00;22.2;21.5;
78678;PMS5003;67994;59.334;13.528;2023-05-16T03:59:00;22.2;21.5;
78678;PMS5003;67994;59.334;13.528;2023-05-16T04:00:00;22.2;21.5;
78678;PMS5003;67994;59.334;13.528;2023-05-16T04:01:00;22.2;21.5;
78678;PMS5003;67994;59.334;13.528;2023-05-16T04:02:00;22.2;21.5;
78678;PMS5003;67994;59.334;13.528;2023-05-16T04:03:00;30.1;29.0;
78678;PMS5003;67994;59.334;13.528;2023-05-16T04:04:00;30.1;29.0;
78678;PMS5003;67994;59.334;13.528;2023-05-16T04:05:00;30.1;29.0;
78678;PMS5003;67994;59.334;13.528;2023-05-16T04:06:00;30.1;29.0;
78678;PMS5003;67994;59.334;13.528;2023-05-16T04:07:00;30.1;29.0;
78678;PMS5003;67994;59.334;13.528;2023-05-16T04:08:00;24.5;23.7;
78678;PMS5003;67994;59.334;13.528;2023-05-16T04:09:00;24.5;23.7;
78678;PMS5003;67994;59.334;13.528;2023-05-16T04:10:00;24.5;23.7;
78678;PMS5003;67994;59.334;13.528;2023-05-16T04:11:00;24.5;23.7;
78678;PMS5003;67994;59.334;13.528;2023-05-16T04:12:00;24.5;23.7;
78678;PMS5003;67994;59.334;13.528;2023-05-16T04:13:00;27.6;26.2;
78678;PMS5003;67994;59.334;13.528;2023-05-16T04:14:00;27.6;26.2;
78678;PMS5003;67994;59.334;13.528;2023-05-16T04:15:00;27.6;26.2;
78678;PMS5003;67994;59.334;13.528;2023-05-16T04:16:00;27.6;26.2;
78678;PMS5003;67994;59.334;13.528;2023-05-16T04:17:00;27.6;26.2;
78678;PMS5003;67994;59.334;13.528;2023-05-16T04:18:00;27.0;24.3;
78678;PMS5003;67994;59.334;13.528;2023-05-16T04:19:00;27.0;24.3;
78678;PMS5003;67994;59.334;13.528;2023-05-16T04:20:00;27.0;24.3;
78678;PMS5003;67994;59.334;13.528;2023-05-16T04:21:00;27.0;24.3;
78678;PMS5003;67994;59.334;13.528;2023-05-16T04:22:00;27.0;24.3;
78678;PMS5003;67994;59.334;13.528;2023-05-16T04:23:00;27.1;25.8;
78678;PMS5003;67994;59.334;13.528;2023-05-16T04:24:00;27.1;25.8;
78678;PMS5003;67994;59.334;13.528;2023-05-16T04:25:00;27.1;25.8;
78678;PMS5003;67994;59.334;13.528;2023-05-16T04:26:00;27.1;25.8;
78678;PMS5003;67994;59.334;13.528;2023-05-16T04:27:00;27.1;25.8;
78678;PMS5003;67994;59.334;13.528;2023-05-16T04:28:00;20.1;19.2;
78678;PMS5003;67994;59.334;13.528;2023-05-16T04:29:00;20.1;19.2;
78678;PMS5003;67994;59.334;13.528;2023-05-16T04:30:00;20.1;19.2;
78678;PMS5003;67994;59.334;13.528;2023-05-16T04:31:00;20.1;19.2;
78678;PMS5003;67994;59.334;13.528;2023-05-16T04:32:00;20.1;19.2;
78678;PMS5003;67994;59.334;13.528;2023-05-16T04:33:00;26.9;23.6;
78678;PMS5003;67994;59.334;13.528;2023-05-16T04:34:00;26.9;23.6;
78678;PMS5003;67994;59.334;13.528;2023-05-16T04:35:00;26.9;23.6;
78678;PMS5003;67994;59.334;13.528;2023-05-16T04:36:00;26.9;23.6;
78678;PMS5003;67994;59.334;13.528;2023-05-16T04:37:00;26.9;23.6;
78678;PMS5003;67994;59.334;13.528;2023-05-16T04:38:00;20.6;20.6;
78678;PMS5003;67994;59.334;13.528;2023-05-16T04:39:00;20.6;20.6;
78678;PMS5003;67994;59.334;13.528;2023-05-16T04:40:00;20.6;20.6;
78678;PMS5003;67994;59.334;13.528;2023-05-16T04:41:00;20.6;20.6;
78678;PMS5003;67994;59.334;13.528;2023-05-16T04:42:00;20.6;20.6;
78678;PMS5003;67994;59.334;13.528;2023-05-16T04:43:00;21.4;21.4;
78678;PMS5003;67994;59.334;13.528;2023-05-16T04:44:00;21.4;21.4;
78678;PMS5003;67994;59.334;13.528;2023-05-16T04:45:00;21.4;21.4;
78678;PMS5003;67994;59.334;13.528;2023-05-16T04:46:00;21.4;21.4;
78678;PMS5003;67994;59.334;13.528;2023-05-16T04:47:00;21.4;21.4;
78678;PMS5003;67994;59.334;13.528;2023-05-16T04:48:00;23.1;19.0;
78678;PMS5003;67994;59.334;13.528;2023-05-16T04:49:00;23.1;19.0;
78678;PMS5003;67994;59.334;13.528;2023-05-16T04:50:00;23.1;19.0;
78678;PMS5003;67994;59.334;13.528;2023-05-16T04:51:00;23.1;19.0;
78678;PMS5003;67994;59.334;13.528;2023-05-16T04:52:00;23.1;19.0;
78678;PMS5003;67994;59.334;13.528;2023-05-16T04:53:00;25.5;22.6;
78678;PMS5003;67994;59.334;13.528;2023-05-16T04:54:00;25.5;22.6;
78678;PMS5003;67994;59.334;13.528;2023-05-16T04:55:00;25.5;22.6;
78678;PMS5003;67994;59.334;13.528;2023-05-16T04:56:00;25.5;22.6;
78678;PMS5003;67994;59.334;13.528;2023-05-16T04:57:00;25.5;22.6;
78678;PMS5003;67994;59.334;13.528;2023-05-16T04:58:00;22.0;21.5;
78678;PMS5003;67994;59.334;13.528;2023-05-16T04:59:00;22.0;21.5;
78678;PMS5003;67994;59.334;13.528;2023-05-16T05:00:00;22.0;21.5;
78678;PMS5003;67994;59.334;13.528;2023-05-16T05:01:00;22.0;21.5;
78678;PMS5003;67994;59.334;13.528;2023-05-16T05:02:00;22.0;21.5;
78678;PMS5003;67994;59.334;13.528;2023-05-16T05:03:00;28.3;26.7;
78678;PMS5003;67994;59.334;13.528;2023-05-16T05:04:00;28.3;26.7;
78678;PMS5003;67994;59.334;13.528;2023-05-16T05:05:00;28.3;26.7;
78678;PMS5003;67994;59.334;13.528;2023-05-16T05:06:00;28.3;26.7;
78678;PMS5003;67994;59.334;13.528;2023-05-16T05:07:00;28.3;26.7;
78678;PMS5003;67994;59.334;13.528;2023-05-16T05:08:00;26.1;25.0;
78678;PMS5003;67994;59.334;13.528;2023-05-16T05:09:00;26.1;25.0;
78678;PMS5003;67994;59.334;13.528;2023-05-16T05:10:00;26.1;25.0;
78678;PMS5003;67994;59.334;13.528;2023-05-16T05:11:00;26.1;25.0;
78678;PMS5003;67994;59.334;13.528;2023-05-16T05:12:00;26.1;25.0;
78678;PMS5003;67994;59.334;13.528;2023-05-16T05:13:00;25.3;24.0;
78678;PMS5003;67994;59.334;13.528;2023-05-16T05:14:00;25.3;24.0;
78678;PMS5003;67994;59.334;13.528;2023-05-16T05:15:00;25.3;24.0;
78678;PMS5003;67994;59.334;13.528;2023-05-16T05:16:00;25.3;24.0;
78678;PMS5003;67994;59.334;13.528;2023-05-16T05:17:00;25.3;24.0;
78678;PMS5003;67994;59.334;13.528;2023-05-16T05:18:00;25.8;25.0;
78678;PMS5003;67994;59.334;13.528;2023-05-16T05:19:00;25.8;25.0;
78678;PMS5003;67994;59.334;13.528;2023-05-16T05:20:00;25.8;25.0;
78678;PMS5003;67994;59.334;13.528;2023-05-16T05:21:00;25.8;25.0;
78678;PMS5003;67994;59.334;13.528;2023-05-16T05:22:00;25.8;25.0;
78678;PMS5003;67994;59.334;13.528;2023-05-16T05:23:00;28.8;25.4;
78678;PMS5003;67994;59.334;13.528;2023-05-16T05:24:00;28.8;25.4;
78678;PMS5003;67994;59.334;13.528;2023-05-16T05:25:00;28.8;25.4;
78678;PMS5003;67994;59.334;13.528;2023-05-16T05:26:00;28.8;25.4;
78678;PMS5003;67994;59.334;13.528;2023-05-16T05:27:00;28.8;25.4;
78678;PMS5003;67994;59.334;13.528;2023-05-16T05:28:00;33.4;30.0;
78678;PMS5003;67994;59.334;13.528;2023-05-16T05:29:00;33.4;30.0;
78678;PMS5003;67994;59.334;13.528;2023-05-16T05:30:00;33.4;30.0;
78678;PMS5003;67994;59.334;13.528;2023-05-16T05:31:00;33.4;30.0;
78678;PMS5003;67994;59.334;13.528;2023-05-16T05:32:00;33.4;30.0;
78678;PMS5003;67994;59.334;13.528;2023-05-16T05:33:00;27.3;25.4;
78678;PMS5003;67994;59.334;13.528;2023-05-16T05:34:00;27.3;25.4;
78678;PMS5003;67994;59.334;13.528;2023-05-16T05:35:00;27.3;25.4;
78678;PMS5003;67994;59.334;13.528;2023-05-16T05:36:00;27.3;25.4;
78678;PMS5003;67994;59.334;13.528;2023-05-16T05:37:00;27.3;25.4;
78678;PMS5003;67994;59.334;13.528;2023-05-16T05:38:00;31.6;30.8;
78678;PMS5003;67994;59.334;13.528;2023-05-16T05:39:00;31.6;30.8;
78678;PMS5003;67994;59.334;13.528;2023-05-16T05:40:00;31.6;30.8;
78678;PMS5003;67994;59.334;13.528;2023-05-16T05:41:00;31.6;30.8;
78678;PMS5003;67994;59.334;13.528;2023-05-16T05:42:00;31.6;30.8;
78678;PMS5003;67994;59.334;13.528;2023-05-16T05:43:00;28.0;22.9;
78678;PMS5003;67994;59.334;13.528;2023-05-16T05:44:00;28.0;22.9;
78678;PMS5003;67994;59.334;13.528;2023-05-16T05:45:00;28.0;22.9;
78678;PMS5003;67994;59.334;13.528;2023-05-16T05:46:00;28.0;22.9;
78678;PMS5003;67994;59.334;13.528;2023-05-16T05:47:00;28.0;22.9;
78678;PMS5003;67994;59.334;13.528;2023-05-16T05:48:00;19.3;19.3;
78678;PMS5003;67994;59.334;13.528;2023-05-16T05:49:00;19.3;19.3;
78678;PMS5003;67994;59.334;13.528;2023-05-16T05:50:00;19.3;19.3;
78678;PMS5003;67994;59.334;13.528;2023-05-16T05:51:00;19.3;19.3;
78678;PMS5003;67994;59.334;13.528;2023-05-16T05:52:00;19.3;19.3;
78678;PMS5003;67994;59.334;13.528;2023-05-16T05:53:00;26.4;23.8;
78678;PMS5003;67994;59.334;13.528;2023-05-16T05:54:00;26.4;23.8;
78678;PMS5003;67994;59.334;13.528;2023-05-16T05:55:00;26.4;23.8;
78678;PMS5003;67994;59.334;13.528;2023-05-16T05:56:00;26.4;23.8;
78678;PMS5003;67994;59.334;13.528;2023-05-16T05:57:00;26.4;23.8;
78678;PMS5003;67994;59.334;13.528;2023-05-16T05:58:00;28.6;25.3;
78678;PMS5003;67994;59.334;13.528;2023-05-16T05:59:00;28.6;25.3;
78678;PMS5003;67994;59.334;13.528;2023-05-16T06:00:00;28.6;25.3;
78678;PMS5003;67994;59.334;13.528;2023-05-16T06:01:00;28.6;25.3;
78678;PMS5003;67994;59.334;13.528;2023-05-16T06:02:00;28.6;25.3;
78678;PMS5003;67994;59.334;13.528;2023-05-16T06:03:00;20.1;20.1;
78678;PMS5003;67994;59.334;13.528;2023-05-16T06:04:00;20.1;20.1;
78678;PMS5003;67994;59.334;13.528;2023-05-16T06:05:00;20.1;20.1;
78678;PMS5003;67994;59.334;13.528;2023-05-16T06:06:00;20.1;20.1;
78678;PMS5003;67994;59.334;13.528;2023-05-16T06:07:00;20.1;20.1;
78678;PMS5003;67994;59.334;13.528;2023-05-16T06:08:00;24.0;18.0;